Buoy 16575

sailwx.info

Track history (hours):
 
Tides and Currents Weather Stations Pressure Air Temp Water Temp Dewpoint Dewpoint Depression Visibility Wind Speed Wind Dir Waves Ship Positions

Drifting buoy 16575

Last reported at 2014-Nov-22 10:00 UTC. Time now 2014-Nov-22 13:17 UTC.
Position S 27°55' E 060°55'.

Barometer 1021.8 mb
Water temperature 23.1 ° C

Date/timePositionNaut miles runAvg speedWind from/ knotsBaromVisibWave heightAir tempDewpointWater temp
2014-Nov-22 10:00S 27°55' E 060°55'0 0.0 1021.8 23.1
2014-Nov-22 09:00S 27°55' E 060°55'2 0.7 1031.1 22.8
2014-Nov-22 06:00S 27°55' E 060°57'1 0.5 1020.0 22.7
2014-Nov-22 05:00S 27°55' E 060°58'0 0.0 1020.5 22.7
2014-Nov-22 04:00S 27°55' E 060°58'2 2.0 1020.2 22.6
2014-Nov-22 03:00S 27°56' E 060°59'0 0.0 1019.6 22.6
2014-Nov-22 02:00S 27°56' E 060°59'0 0.0 1016.4 22.6
2014-Nov-22 01:00S 27°56' E 060°59'1 1.2 1016.4 22.6
2014-Nov-22 00:00S 27°56' E 061°01'1 0.6 1016.3 22.7
2014-Nov-21 23:00S 27°57' E 061°01'0 0.0 1015.9 22.7
2014-Nov-21 22:00S 27°57' E 061°01'1 1.2 1016.2 22.7
2014-Nov-21 21:00S 27°58' E 061°01'1 0.8 1016.7 22.7
2014-Nov-21 20:00S 27°59' E 061°00'1 0.3 1017.3 22.7
2014-Nov-21 18:00S 27°59' E 060°59'1 1.2 1014.4 22.7
2014-Nov-21 17:00S 27°59' E 060°58'2 1.7 1017.2 22.7
2014-Nov-21 16:00S 27°59' E 060°56'0 0.2 1016.6 22.8
2014-Nov-21 15:00S 27°59' E 060°56'1 1.3 1015.6 22.8
2014-Nov-21 14:00S 27°58' E 060°55'1 0.8 1013.6 22.9
2014-Nov-21 13:00S 27°58' E 060°55'0 0.0 1012.4 22.9
2014-Nov-21 12:00S 27°58' E 060°55'3 1.4 1012.1 22.9
2014-Nov-21 10:00S 27°55' E 060°53'1 1.2 1012.6 22.8
2014-Nov-21 09:00S 27°54' E 060°53'1 1.2 1017.6 22.7
2014-Nov-21 08:00S 27°55' E 060°53'2 1.2 1018.7 22.7
2014-Nov-21 06:00S 27°53' E 060°53'1 0.6 1017.6 22.6
2014-Nov-21 05:00S 27°52' E 060°53'1 1.3 1015.1 22.6
2014-Nov-21 04:00S 27°51' E 060°53'1 0.6 1021.1 22.5
2014-Nov-21 02:00S 27°50' E 060°53'0 0.0 1017.1 22.6
2014-Nov-21 01:00S 27°50' E 060°53'1 1.1 1016.3 22.6
2014-Nov-21 00:00S 27°50' E 060°55'1 1.2 1016.2 22.7
2014-Nov-20 23:00S 27°49' E 060°55'0 0.0 1016.5 22.7
2014-Nov-20 22:00S 27°49' E 060°55'1 0.2 1016.6 22.7
2014-Nov-20 19:00S 27°48' E 060°55'1 0.8 1017.9 22.7
2014-Nov-20 18:00S 27°49' E 060°54'0 0.5 1018.1 22.8
2014-Nov-20 17:00S 27°48' E 060°54'0 0.0 1017.9 22.7
2014-Nov-20 16:00S 27°48' E 060°54'0 0.2 1017.2 22.7
2014-Nov-20 14:00S 27°49' E 060°54'1 0.8 1013.0 22.7
2014-Nov-20 13:00S 27°48' E 060°53'1 1.3 1016.7 22.7
2014-Nov-20 12:00S 27°47' E 060°53'0 0.0 1010.5 22.7
2014-Nov-20 11:00S 27°47' E 060°53'1 1.3 1012.1 22.7
2014-Nov-20 10:00S 27°46' E 060°52'0 0.0 1012.9 22.7
2014-Nov-20 09:00S 27°46' E 060°52'2 0.8 1016.2 22.6
2014-Nov-20 06:00S 27°43' E 060°52'1 0.5 1019.2 22.4
2014-Nov-20 05:00S 27°43' E 060°53'1 1.2 1019.7 22.3
2014-Nov-20 04:00S 27°42' E 060°53'1 0.8 1022.0 22.3
2014-Nov-20 03:00S 27°41' E 060°53'1 0.8 1023.2 22.3
2014-Nov-20 02:00S 27°41' E 060°54'1 0.6 1022.8 22.3
2014-Nov-20 01:00S 27°41' E 060°55'1 0.8 1016.2 22.3
2014-Nov-20 00:00S 27°40' E 060°55'1 0.8 1016.5 22.3
2014-Nov-19 23:00S 27°40' E 060°56'0 0.4 1016.9 22.3
2014-Nov-19 22:00S 27°40' E 060°56'1 0.3 1016.6 22.3
2014-Nov-19 20:00S 27°40' E 060°57'2 0.8 1016.9 22.3
2014-Nov-19 18:00S 27°40' E 060°59'1 0.8 1017.4 22.6
2014-Nov-19 17:00S 27°40' E 060°58'0 0.0 1017.3 22.7
2014-Nov-19 16:00S 27°40' E 060°58'1 0.4 1015.6 22.8
2014-Nov-19 14:00S 27°40' E 060°59'1 0.8 1009.1 23.1
2014-Nov-19 13:00S 27°40' E 060°58'1 0.8 1013.0 23.1
2014-Nov-19 12:00S 27°40' E 060°58'2 1.6 1014.8 23.2
2014-Nov-19 11:00S 27°38' E 060°56'0 0.2 1013.3 23.3
2014-Nov-19 10:00S 27°39' E 060°56'0 0.2 1017.6 23.3
2014-Nov-19 09:00S 27°38' E 060°56'5 1.3 1016.4 23.2
2014-Nov-19 05:00S 27°34' E 060°55'1 0.8 1019.3 22.7
2014-Nov-19 04:00S 27°33' E 060°55'1 0.8 1020.6 22.7
2014-Nov-19 03:00S 27°32' E 060°56'1 0.8 1023.6 22.7
2014-Nov-19 02:00S 27°32' E 060°56'2 2.1 1028.6 22.7
2014-Nov-19 01:00S 27°30' E 060°58'0 0.0 1017.1 22.7
2014-Nov-19 00:00S 27°30' E 060°58'2 0.8 1015.7 22.9
2014-Nov-18 22:00S 27°29' E 060°59'2 1.7 1016.8 23.0
2014-Nov-18 21:00S 27°28' E 061°01'0 0.0 1018.0 23.1
2014-Nov-18 20:00S 27°28' E 061°01'2 1.1 1020.2 23.2
2014-Nov-18 18:00S 27°29' E 061°03'0 0.4 1018.2 23.5
2014-Nov-18 17:00S 27°29' E 061°03'1 1.2 1017.3 23.6
2014-Nov-18 16:00S 27°30' E 061°04'0 0.0 1014.4 23.6
2014-Nov-18 15:00S 27°30' E 061°04'1 0.5 1004.6 23.8
2014-Nov-18 14:00S 27°30' E 061°04'0 0.4 1009.6 24.1
2014-Nov-18 13:00S 27°31' E 061°04'1 1.2 1013.0 24.2
2014-Nov-18 12:00S 27°31' E 061°02'0 0.4 1013.9 24.2
2014-Nov-18 11:00S 27°31' E 061°02'3 1.4 1017.5 23.9
2014-Nov-18 09:00S 27°29' E 061°01'0 0.3 1017.2 23.2
2014-Nov-18 08:00S 27°29' E 061°00'1 0.3 1018.4 23.1
2014-Nov-18 06:00S 27°28' E 061°00'1 1.2 1020.6 22.7
2014-Nov-18 05:00S 27°28' E 060°59'2 2.1 1022.4 22.4
2014-Nov-18 04:00S 27°26' E 061°00'0 0.0 1022.1 22.3
2014-Nov-18 03:00S 27°26' E 061°00'1 0.7 1022.1 22.2
2014-Nov-18 02:00S 27°25' E 061°00'1 0.6 1027.8 22.2
2014-Nov-18 01:00S 27°25' E 061°01'1 0.8 1017.8 22.2
2014-Nov-18 00:00S 27°24' E 061°01'1 0.6 1016.9 22.2
2014-Nov-17 23:00S 27°23' E 061°01'2 1.7 1018.0 22.2
2014-Nov-17 22:00S 27°23' E 061°03'0 0.0 1017.3 22.2
2014-Nov-17 21:00S 27°23' E 061°03'0 0.0 1017.3 22.2
2014-Nov-17 20:00S 27°23' E 061°03'2 2.1 1017.4 22.2
2014-Nov-17 19:00S 27°23' E 061°05'1 1.1 1018.1 22.2
2014-Nov-17 18:00S 27°23' E 061°07'1 0.6 1017.9 22.2
2014-Nov-17 17:00S 27°22' E 061°07'0 0.0 1016.6 22.2
2014-Nov-17 16:00S 27°22' E 061°07'2 0.8 1015.4 22.3
2014-Nov-17 14:00S 27°22' E 061°08'0 0.0 1009.9 22.3
2014-Nov-17 13:00S 27°22' E 061°08'1 0.8 1014.1 22.4
2014-Nov-17 12:00S 27°22' E 061°09'1 0.4 1014.3 22.6
2014-Nov-17 09:00S 27°21' E 061°10'2 0.7 1014.4 22.8
2014-Nov-17 06:00S 27°19' E 061°11'1 0.6 1023.3 22.3
2014-Nov-17 05:00S 27°19' E 061°11'1 0.7 1019.6 22.1
2014-Nov-17 03:00S 27°17' E 061°12'1 1.3 1021.2 22.1
2014-Nov-17 02:00S 27°16' E 061°13'1 1.3 1026.6 22.1
2014-Nov-17 01:00S 27°15' E 061°13'2 1.9 1017.9 22.1
2014-Nov-17 00:00S 27°13' E 061°14'1 0.8 1017.5 22.1
2014-Nov-16 23:00S 27°13' E 061°14'2 1.6 1016.8 22.1
2014-Nov-16 22:00S 27°11' E 061°16'4 1.3 1017.7 22.1
2014-Nov-16 19:00S 27°09' E 061°19'1 1.2 1019.3 22.2
2014-Nov-16 18:00S 27°10' E 061°20'1 1.2 1018.6 22.2
2014-Nov-16 17:00S 27°09' E 061°22'3 3.2 1018.6 22.2
2014-Nov-16 16:00S 27°09' E 061°25'0 0.3 1018.0 22.3
2014-Nov-16 15:00S 27°09' E 061°25'1 1.1 1015.3 22.3
2014-Nov-16 14:00S 27°08' E 061°26'0 0.3 1012.3 22.4
2014-Nov-16 13:00S 27°08' E 061°26'1 1.1 1012.5 22.6
2014-Nov-16 12:00S 27°08' E 061°28'0 0.0 1014.8 22.6
2014-Nov-16 11:00S 27°08' E 061°28'1 0.8 1015.4 22.7
2014-Nov-16 10:00S 27°08' E 061°28'2 2.0 1017.7 22.7
2014-Nov-16 09:00S 27°07' E 061°30'1 0.5 1021.5 22.6
2014-Nov-16 08:00S 27°07' E 061°31'0 0.0 1018.3 22.4
2014-Nov-16 06:00S 27°07' E 061°31'1 0.8 1023.6 22.3
2014-Nov-16 05:00S 27°06' E 061°31'1 0.8 1022.6 22.3
2014-Nov-16 04:00S 27°05' E 061°32'1 0.6 1024.7 22.2
2014-Nov-16 03:00S 27°05' E 061°32'1 0.8 1025.4 22.2
2014-Nov-16 02:00S 27°04' E 061°32'1 0.8 1025.3 22.2
2014-Nov-16 01:00S 27°04' E 061°33'2 1.9 1019.6 22.1
2014-Nov-16 00:00S 27°02' E 061°34'5 4.8 1020.8 22.1
2014-Nov-15 23:00S 26°59' E 061°38'0 0.0 1019.5 22.2
2014-Nov-15 22:00S 26°59' E 061°38'0 0.0 1020.0 22.2
2014-Nov-15 21:00S 26°59' E 061°38'2 1.2 1021.0 22.2
2014-Nov-15 19:00S 26°58' E 061°40'0 0.2 1022.1 22.2
2014-Nov-15 18:00S 26°58' E 061°40'2 1.7 1021.8 22.1
2014-Nov-15 17:00S 26°58' E 061°42'2 2.2 1022.1 22.2
2014-Nov-15 16:00S 26°57' E 061°44'0 0.0 1021.5 22.1
2014-Nov-15 15:00S 26°57' E 061°44'1 0.3 1020.6 22.2
2014-Nov-15 13:00S 26°57' E 061°45'0 0.0 1017.6 22.2
2014-Nov-15 12:00S 26°57' E 061°45'2 2.2 1017.2 22.2
2014-Nov-15 11:00S 26°56' E 061°47'0 0.0 1020.1 22.2
2014-Nov-15 10:00S 26°56' E 061°47'1 0.6 1015.8 22.2
2014-Nov-15 09:00S 26°56' E 061°47'1 1.3 1027.0 22.3
2014-Nov-15 08:00S 26°55' E 061°48'0 0.0 1029.1 22.3
2014-Nov-15 06:00S 26°55' E 061°48'1 0.8 1028.1 22.2
2014-Nov-15 05:00S 26°54' E 061°49'2 1.6 1021.5 22.2
2014-Nov-15 04:00S 26°53' E 061°47'2 1.2 1024.8 22.2
2014-Nov-15 02:00S 26°51' E 061°49'2 2.1 1024.6 22.2
2014-Nov-15 01:00S 26°49' E 061°50'4 1.8 1021.9 22.1
2014-Nov-14 23:00S 26°47' E 061°54'0 0.1 1022.2 22.2
2014-Nov-14 22:00S 26°47' E 061°54'0 0.1 1021.7 22.3
2014-Nov-14 21:00S 26°47' E 061°54'4 3.7 1023.7 22.3
2014-Nov-14 20:00S 26°46' E 061°58'0 0.0 1023.3 22.3
2014-Nov-14 18:00S 26°46' E 061°58'1 0.8 1024.8 22.5
2014-Nov-14 17:00S 26°45' E 061°58'0 0.0 1024.3 22.6
2014-Nov-14 16:00S 26°45' E 061°58'3 1.6 1024.0 22.6
2014-Nov-14 14:00S 26°45' E 062°02'2 1.1 1021.3 22.7
2014-Nov-14 12:00S 26°45' E 062°04'0 0.0 1019.9 22.7
2014-Nov-14 11:00S 26°45' E 062°04'0 0.0 1025.2 22.7
2014-Nov-14 10:00S 26°45' E 062°04'1 0.3 1019.7 22.7
2014-Nov-14 06:00S 26°45' E 062°06'1 0.7 1026.9 22.7
2014-Nov-14 05:00S 26°44' E 062°05'0 0.0 1024.5 22.7
2014-Nov-14 04:00S 26°44' E 062°05'2 1.6 1024.2 22.7
2014-Nov-14 03:00S 26°43' E 062°06'1 1.3 1024.1 22.7
2014-Nov-14 02:00S 26°42' E 062°07'1 0.6 1024.5 22.7
2014-Nov-14 01:00S 26°41' E 062°07'3 1.6 1023.3 22.7
2014-Nov-13 23:00S 26°39' E 062°09'1 0.6 1023.4 22.7
2014-Nov-13 21:00S 26°38' E 062°10'3 2.9 1023.2 22.7
2014-Nov-13 20:00S 26°37' E 062°13'0 0.0 1023.1 22.7
2014-Nov-13 18:00S 26°37' E 062°13'0 0.0 1023.6 22.8
2014-Nov-13 17:00S 26°37' E 062°13'3 2.7 1023.4 22.8
2014-Nov-13 16:00S 26°37' E 062°16'1 0.5 1022.6 22.9
2014-Nov-13 14:00S 26°37' E 062°17'0 0.0 1021.3 22.9
2014-Nov-13 13:00S 26°37' E 062°17'2 1.7 1020.0 23.0
2014-Nov-13 12:00S 26°38' E 062°19'1 0.4 1019.1 23.0
2014-Nov-13 10:00S 26°38' E 062°20'0 0.2 1021.3 23.1
2014-Nov-13 09:00S 26°38' E 062°20'1 0.3 1021.1 23.1
2014-Nov-13 05:00S 26°38' E 062°19'0 0.0 1024.4 23.0
2014-Nov-13 04:00S 26°38' E 062°19'0 0.0 1023.2 22.9
2014-Nov-13 03:00S 26°38' E 062°19'1 0.9 1021.8 22.9
2014-Nov-13 02:00S 26°37' E 062°19'1 0.6 1024.9 23.0
2014-Nov-13 01:00S 26°36' E 062°19'2 1.9 1021.9 23.0
2014-Nov-13 00:00S 26°35' E 062°20'0 0.0 1018.5 23.0
2014-Nov-12 23:00S 26°35' E 062°20'0 0.0 1019.0 23.1
2014-Nov-12 22:00S 26°35' E 062°20'1 0.8 1018.9 23.1
2014-Nov-12 21:00S 26°34' E 062°20'1 0.6 1018.3 23.1
2014-Nov-12 20:00S 26°34' E 062°20'1 0.9 1019.4 23.1
2014-Nov-12 19:00S 26°34' E 062°21'1 0.7 1018.8 23.1
2014-Nov-12 18:00S 26°33' E 062°22'0 0.0 1019.1 23.1
2014-Nov-12 17:00S 26°33' E 062°22'1 1.1 1018.9 23.1
2014-Nov-12 16:00S 26°33' E 062°23'0 0.1 1018.2 23.1
2014-Nov-12 15:00S 26°33' E 062°23'0 0.2 1016.1 23.1
2014-Nov-12 14:00S 26°33' E 062°23'0 0.5 1013.8 23.1
2014-Nov-12 13:00S 26°33' E 062°23'0 0.2 1014.0 23.1
2014-Nov-12 12:00S 26°33' E 062°24'0 0.4 1014.4 23.1
2014-Nov-12 11:00S 26°34' E 062°23'   1013.2 23.1
Track history (hours):
 
Tides and Currents Weather Stations Pressure Air Temp Water Temp Dewpoint Dewpoint Depression Visibility Wind Speed Wind Dir Waves Ship Positions

Drifting buoy 16575

Last reported at 2014-Nov-22 10:00 UTC. Time now 2014-Nov-22 13:17 UTC.
Position S 27°55' E 060°55'.

Barometer 1021.8 mb
Water temperature 23.1 ° C

Date/timePositionNaut miles runAvg speedWind from/ knotsBaromVisibWave heightAir tempDewpointWater temp
2014-Nov-22 10:00S 27°55' E 060°55'0 0.0 1021.8 23.1
2014-Nov-22 09:00S 27°55' E 060°55'2 0.7 1031.1 22.8
2014-Nov-22 06:00S 27°55' E 060°57'1 0.5 1020.0 22.7
2014-Nov-22 05:00S 27°55' E 060°58'0 0.0 1020.5 22.7
2014-Nov-22 04:00S 27°55' E 060°58'2 2.0 1020.2 22.6
2014-Nov-22 03:00S 27°56' E 060°59'0 0.0 1019.6 22.6
2014-Nov-22 02:00S 27°56' E 060°59'0 0.0 1016.4 22.6
2014-Nov-22 01:00S 27°56' E 060°59'1 1.2 1016.4 22.6
2014-Nov-22 00:00S 27°56' E 061°01'1 0.6 1016.3 22.7
2014-Nov-21 23:00S 27°57' E 061°01'0 0.0 1015.9 22.7
2014-Nov-21 22:00S 27°57' E 061°01'1 1.2 1016.2 22.7
2014-Nov-21 21:00S 27°58' E 061°01'1 0.8 1016.7 22.7
2014-Nov-21 20:00S 27°59' E 061°00'1 0.3 1017.3 22.7
2014-Nov-21 18:00S 27°59' E 060°59'1 1.2 1014.4 22.7
2014-Nov-21 17:00S 27°59' E 060°58'2 1.7 1017.2 22.7
2014-Nov-21 16:00S 27°59' E 060°56'0 0.2 1016.6 22.8
2014-Nov-21 15:00S 27°59' E 060°56'1 1.3 1015.6 22.8
2014-Nov-21 14:00S 27°58' E 060°55'1 0.8 1013.6 22.9
2014-Nov-21 13:00S 27°58' E 060°55'0 0.0 1012.4 22.9
2014-Nov-21 12:00S 27°58' E 060°55'3 1.4 1012.1 22.9
2014-Nov-21 10:00S 27°55' E 060°53'1 1.2 1012.6 22.8
2014-Nov-21 09:00S 27°54' E 060°53'1 1.2 1017.6 22.7
2014-Nov-21 08:00S 27°55' E 060°53'2 1.2 1018.7 22.7
2014-Nov-21 06:00S 27°53' E 060°53'1 0.6 1017.6 22.6
2014-Nov-21 05:00S 27°52' E 060°53'1 1.3 1015.1 22.6
2014-Nov-21 04:00S 27°51' E 060°53'1 0.6 1021.1 22.5
2014-Nov-21 02:00S 27°50' E 060°53'0 0.0 1017.1 22.6
2014-Nov-21 01:00S 27°50' E 060°53'1 1.1 1016.3 22.6
2014-Nov-21 00:00S 27°50' E 060°55'1 1.2 1016.2 22.7
2014-Nov-20 23:00S 27°49' E 060°55'0 0.0 1016.5 22.7
2014-Nov-20 22:00S 27°49' E 060°55'1 0.2 1016.6 22.7
2014-Nov-20 19:00S 27°48' E 060°55'1 0.8 1017.9 22.7
2014-Nov-20 18:00S 27°49' E 060°54'0 0.5 1018.1 22.8
2014-Nov-20 17:00S 27°48' E 060°54'0 0.0 1017.9 22.7
2014-Nov-20 16:00S 27°48' E 060°54'0 0.2 1017.2 22.7
2014-Nov-20 14:00S 27°49' E 060°54'1 0.8 1013.0 22.7
2014-Nov-20 13:00S 27°48' E 060°53'1 1.3 1016.7 22.7
2014-Nov-20 12:00S 27°47' E 060°53'0 0.0 1010.5 22.7
2014-Nov-20 11:00S 27°47' E 060°53'1 1.3 1012.1 22.7
2014-Nov-20 10:00S 27°46' E 060°52'0 0.0 1012.9 22.7
2014-Nov-20 09:00S 27°46' E 060°52'2 0.8 1016.2 22.6
2014-Nov-20 06:00S 27°43' E 060°52'1 0.5 1019.2 22.4
2014-Nov-20 05:00S 27°43' E 060°53'1 1.2 1019.7 22.3
2014-Nov-20 04:00S 27°42' E 060°53'1 0.8 1022.0 22.3
2014-Nov-20 03:00S 27°41' E 060°53'1 0.8 1023.2 22.3
2014-Nov-20 02:00S 27°41' E 060°54'1 0.6 1022.8 22.3
2014-Nov-20 01:00S 27°41' E 060°55'1 0.8 1016.2 22.3
2014-Nov-20 00:00S 27°40' E 060°55'1 0.8 1016.5 22.3
2014-Nov-19 23:00S 27°40' E 060°56'0 0.4 1016.9 22.3
2014-Nov-19 22:00S 27°40' E 060°56'1 0.3 1016.6 22.3
2014-Nov-19 20:00S 27°40' E 060°57'2 0.8 1016.9 22.3
2014-Nov-19 18:00S 27°40' E 060°59'1 0.8 1017.4 22.6
2014-Nov-19 17:00S 27°40' E 060°58'0 0.0 1017.3 22.7
2014-Nov-19 16:00S 27°40' E 060°58'1 0.4 1015.6 22.8
2014-Nov-19 14:00S 27°40' E 060°59'1 0.8 1009.1 23.1
2014-Nov-19 13:00S 27°40' E 060°58'1 0.8 1013.0 23.1
2014-Nov-19 12:00S 27°40' E 060°58'2 1.6 1014.8 23.2
2014-Nov-19 11:00S 27°38' E 060°56'0 0.2 1013.3 23.3
2014-Nov-19 10:00S 27°39' E 060°56'0 0.2 1017.6 23.3
2014-Nov-19 09:00S 27°38' E 060°56'5 1.3 1016.4 23.2
2014-Nov-19 05:00S 27°34' E 060°55'1 0.8 1019.3 22.7
2014-Nov-19 04:00S 27°33' E 060°55'1 0.8 1020.6 22.7
2014-Nov-19 03:00S 27°32' E 060°56'1 0.8 1023.6 22.7
2014-Nov-19 02:00S 27°32' E 060°56'2 2.1 1028.6 22.7
2014-Nov-19 01:00S 27°30' E 060°58'0 0.0 1017.1 22.7
2014-Nov-19 00:00S 27°30' E 060°58'2 0.8 1015.7 22.9
2014-Nov-18 22:00S 27°29' E 060°59'2 1.7 1016.8 23.0
2014-Nov-18 21:00S 27°28' E 061°01'0 0.0 1018.0 23.1
2014-Nov-18 20:00S 27°28' E 061°01'2 1.1 1020.2 23.2
2014-Nov-18 18:00S 27°29' E 061°03'0 0.4 1018.2 23.5
2014-Nov-18 17:00S 27°29' E 061°03'1 1.2 1017.3 23.6
2014-Nov-18 16:00S 27°30' E 061°04'0 0.0 1014.4 23.6
2014-Nov-18 15:00S 27°30' E 061°04'1 0.5 1004.6 23.8
2014-Nov-18 14:00S 27°30' E 061°04'0 0.4 1009.6 24.1
2014-Nov-18 13:00S 27°31' E 061°04'1 1.2 1013.0 24.2
2014-Nov-18 12:00S 27°31' E 061°02'0 0.4 1013.9 24.2
2014-Nov-18 11:00S 27°31' E 061°02'3 1.4 1017.5 23.9
2014-Nov-18 09:00S 27°29' E 061°01'0 0.3 1017.2 23.2
2014-Nov-18 08:00S 27°29' E 061°00'1 0.3 1018.4 23.1
2014-Nov-18 06:00S 27°28' E 061°00'1 1.2 1020.6 22.7
2014-Nov-18 05:00S 27°28' E 060°59'2 2.1 1022.4 22.4
2014-Nov-18 04:00S 27°26' E 061°00'0 0.0 1022.1 22.3
2014-Nov-18 03:00S 27°26' E 061°00'1 0.7 1022.1 22.2
2014-Nov-18 02:00S 27°25' E 061°00'1 0.6 1027.8 22.2
2014-Nov-18 01:00S 27°25' E 061°01'1 0.8 1017.8 22.2
2014-Nov-18 00:00S 27°24' E 061°01'1 0.6 1016.9 22.2
2014-Nov-17 23:00S 27°23' E 061°01'2 1.7 1018.0 22.2
2014-Nov-17 22:00S 27°23' E 061°03'0 0.0 1017.3 22.2
2014-Nov-17 21:00S 27°23' E 061°03'0 0.0 1017.3 22.2
2014-Nov-17 20:00S 27°23' E 061°03'2 2.1 1017.4 22.2
2014-Nov-17 19:00S 27°23' E 061°05'1 1.1 1018.1 22.2
2014-Nov-17 18:00S 27°23' E 061°07'1 0.6 1017.9 22.2
2014-Nov-17 17:00S 27°22' E 061°07'0 0.0 1016.6 22.2
2014-Nov-17 16:00S 27°22' E 061°07'2 0.8 1015.4 22.3
2014-Nov-17 14:00S 27°22' E 061°08'0 0.0 1009.9 22.3
2014-Nov-17 13:00S 27°22' E 061°08'1 0.8 1014.1 22.4
2014-Nov-17 12:00S 27°22' E 061°09'1 0.4 1014.3 22.6
2014-Nov-17 09:00S 27°21' E 061°10'2 0.7 1014.4 22.8
2014-Nov-17 06:00S 27°19' E 061°11'1 0.6 1023.3 22.3
2014-Nov-17 05:00S 27°19' E 061°11'1 0.7 1019.6 22.1
2014-Nov-17 03:00S 27°17' E 061°12'1 1.3 1021.2 22.1
2014-Nov-17 02:00S 27°16' E 061°13'1 1.3 1026.6 22.1
2014-Nov-17 01:00S 27°15' E 061°13'2 1.9 1017.9 22.1
2014-Nov-17 00:00S 27°13' E 061°14'1 0.8 1017.5 22.1
2014-Nov-16 23:00S 27°13' E 061°14'2 1.6 1016.8 22.1
2014-Nov-16 22:00S 27°11' E 061°16'4 1.3 1017.7 22.1
2014-Nov-16 19:00S 27°09' E 061°19'1 1.2 1019.3 22.2
2014-Nov-16 18:00S 27°10' E 061°20'1 1.2 1018.6 22.2
2014-Nov-16 17:00S 27°09' E 061°22'3 3.2 1018.6 22.2
2014-Nov-16 16:00S 27°09' E 061°25'0 0.3 1018.0 22.3
2014-Nov-16 15:00S 27°09' E 061°25'1 1.1 1015.3 22.3
2014-Nov-16 14:00S 27°08' E 061°26'0 0.3 1012.3 22.4
2014-Nov-16 13:00S 27°08' E 061°26'1 1.1 1012.5 22.6
2014-Nov-16 12:00S 27°08' E 061°28'0 0.0 1014.8 22.6
2014-Nov-16 11:00S 27°08' E 061°28'1 0.8 1015.4 22.7
2014-Nov-16 10:00S 27°08' E 061°28'2 2.0 1017.7 22.7
2014-Nov-16 09:00S 27°07' E 061°30'1 0.5 1021.5 22.6
2014-Nov-16 08:00S 27°07' E 061°31'0 0.0 1018.3 22.4
2014-Nov-16 06:00S 27°07' E 061°31'1 0.8 1023.6 22.3
2014-Nov-16 05:00S 27°06' E 061°31'1 0.8 1022.6 22.3
2014-Nov-16 04:00S 27°05' E 061°32'1 0.6 1024.7 22.2
2014-Nov-16 03:00S 27°05' E 061°32'1 0.8 1025.4 22.2
2014-Nov-16 02:00S 27°04' E 061°32'1 0.8 1025.3 22.2
2014-Nov-16 01:00S 27°04' E 061°33'2 1.9 1019.6 22.1
2014-Nov-16 00:00S 27°02' E 061°34'5 4.8 1020.8 22.1
2014-Nov-15 23:00S 26°59' E 061°38'0 0.0 1019.5 22.2
2014-Nov-15 22:00S 26°59' E 061°38'0 0.0 1020.0 22.2
2014-Nov-15 21:00S 26°59' E 061°38'2 1.2 1021.0 22.2
2014-Nov-15 19:00S 26°58' E 061°40'0 0.2 1022.1 22.2
2014-Nov-15 18:00S 26°58' E 061°40'2 1.7 1021.8 22.1
2014-Nov-15 17:00S 26°58' E 061°42'2 2.2 1022.1 22.2
2014-Nov-15 16:00S 26°57' E 061°44'0 0.0 1021.5 22.1
2014-Nov-15 15:00S 26°57' E 061°44'1 0.3 1020.6 22.2
2014-Nov-15 13:00S 26°57' E 061°45'0 0.0 1017.6 22.2
2014-Nov-15 12:00S 26°57' E 061°45'2 2.2 1017.2 22.2
2014-Nov-15 11:00S 26°56' E 061°47'0 0.0 1020.1 22.2
2014-Nov-15 10:00S 26°56' E 061°47'1 0.6 1015.8 22.2
2014-Nov-15 09:00S 26°56' E 061°47'1 1.3 1027.0 22.3
2014-Nov-15 08:00S 26°55' E 061°48'0 0.0 1029.1 22.3
2014-Nov-15 06:00S 26°55' E 061°48'1 0.8 1028.1 22.2
2014-Nov-15 05:00S 26°54' E 061°49'2 1.6 1021.5 22.2
2014-Nov-15 04:00S 26°53' E 061°47'2 1.2 1024.8 22.2
2014-Nov-15 02:00S 26°51' E 061°49'2 2.1 1024.6 22.2
2014-Nov-15 01:00S 26°49' E 061°50'4 1.8 1021.9 22.1
2014-Nov-14 23:00S 26°47' E 061°54'0 0.1 1022.2 22.2
2014-Nov-14 22:00S 26°47' E 061°54'0 0.1 1021.7 22.3
2014-Nov-14 21:00S 26°47' E 061°54'4 3.7 1023.7 22.3
2014-Nov-14 20:00S 26°46' E 061°58'0 0.0 1023.3 22.3
2014-Nov-14 18:00S 26°46' E 061°58'1 0.8 1024.8 22.5
2014-Nov-14 17:00S 26°45' E 061°58'0 0.0 1024.3 22.6
2014-Nov-14 16:00S 26°45' E 061°58'3 1.6 1024.0 22.6
2014-Nov-14 14:00S 26°45' E 062°02'2 1.1 1021.3 22.7
2014-Nov-14 12:00S 26°45' E 062°04'0 0.0 1019.9 22.7
2014-Nov-14 11:00S 26°45' E 062°04'0 0.0 1025.2 22.7
2014-Nov-14 10:00S 26°45' E 062°04'1 0.3 1019.7 22.7
2014-Nov-14 06:00S 26°45' E 062°06'1 0.7 1026.9 22.7
2014-Nov-14 05:00S 26°44' E 062°05'0 0.0 1024.5 22.7
2014-Nov-14 04:00S 26°44' E 062°05'2 1.6 1024.2 22.7
2014-Nov-14 03:00S 26°43' E 062°06'1 1.3 1024.1 22.7
2014-Nov-14 02:00S 26°42' E 062°07'1 0.6 1024.5 22.7
2014-Nov-14 01:00S 26°41' E 062°07'3 1.6 1023.3 22.7
2014-Nov-13 23:00S 26°39' E 062°09'1 0.6 1023.4 22.7
2014-Nov-13 21:00S 26°38' E 062°10'3 2.9 1023.2 22.7
2014-Nov-13 20:00S 26°37' E 062°13'0 0.0 1023.1 22.7
2014-Nov-13 18:00S 26°37' E 062°13'0 0.0 1023.6 22.8
2014-Nov-13 17:00S 26°37' E 062°13'3 2.7 1023.4 22.8
2014-Nov-13 16:00S 26°37' E 062°16'1 0.5 1022.6 22.9
2014-Nov-13 14:00S 26°37' E 062°17'0 0.0 1021.3 22.9
2014-Nov-13 13:00S 26°37' E 062°17'2 1.7 1020.0 23.0
2014-Nov-13 12:00S 26°38' E 062°19'1 0.4 1019.1 23.0
2014-Nov-13 10:00S 26°38' E 062°20'0 0.2 1021.3 23.1
2014-Nov-13 09:00S 26°38' E 062°20'1 0.3 1021.1 23.1
2014-Nov-13 05:00S 26°38' E 062°19'0 0.0 1024.4 23.0
2014-Nov-13 04:00S 26°38' E 062°19'0 0.0 1023.2 22.9
2014-Nov-13 03:00S 26°38' E 062°19'1 0.9 1021.8 22.9
2014-Nov-13 02:00S 26°37' E 062°19'1 0.6 1024.9 23.0
2014-Nov-13 01:00S 26°36' E 062°19'2 1.9 1021.9 23.0
2014-Nov-13 00:00S 26°35' E 062°20'0 0.0 1018.5 23.0
2014-Nov-12 23:00S 26°35' E 062°20'0 0.0 1019.0 23.1
2014-Nov-12 22:00S 26°35' E 062°20'1 0.8 1018.9 23.1
2014-Nov-12 21:00S 26°34' E 062°20'1 0.6 1018.3 23.1
2014-Nov-12 20:00S 26°34' E 062°20'1 0.9 1019.4 23.1
2014-Nov-12 19:00S 26°34' E 062°21'1 0.7 1018.8 23.1
2014-Nov-12 18:00S 26°33' E 062°22'0 0.0 1019.1 23.1
2014-Nov-12 17:00S 26°33' E 062°22'1 1.1 1018.9 23.1
2014-Nov-12 16:00S 26°33' E 062°23'0 0.1 1018.2 23.1
2014-Nov-12 15:00S 26°33' E 062°23'0 0.2 1016.1 23.1
2014-Nov-12 14:00S 26°33' E 062°23'0 0.5 1013.8 23.1
2014-Nov-12 13:00S 26°33' E 062°23'0 0.2 1014.0 23.1
2014-Nov-12 12:00S 26°33' E 062°24'0 0.4 1014.4 23.1
2014-Nov-12 11:00S 26°34' E 062°23'   1013.2 23.1

Dump ship's entire track history